Ana Sayfa
METAR-TAF:

METAR-TAF

Havaalanları :

Asvan, Mısır

Enlem: 23-58N, Boylam: 032-47E, yükseklik: 200 m

Güncel hava durumu gözlemi

Rapor saat 01:00 UTC de 1 saat ve 2 dakika önce yapıldı.
Rüzgar kuzey/kuzeybatıdan 4 kt
Sıcaklık 31°C
Nem 14%
Basınç 1006 hPa
Görüş mesafesi 10 km veya daha fazla
1500 m altında bulut yok ve kümülonimbus yok

METAR: HESN 180100Z 33004KT CAVOK 31/M00 Q1006 NOSIG

Saat: 04:02 (02:02 UTC)

Tahmin

Rapor saat 23:00 UTC de 3 saat ve 2 dakika önce yapıldı.
Ayın 18'si saat 00 UTC'den ayın 19'si saat 06 UTC'ye kadar geçerli Tahmin
Rüzgar kuzey/kuzeydoğudan 8 kt
Görüş mesafesi 10 km veya daha fazla
1500 m altında bulut yok ve kümülonimbus yok

TAF: HESN 172300Z 1800/1906 02008KT CAVOK

4.000'den fazla havaalanı için hava durumu gözlemleri ve tahminleri (METAR ve TAF raporları).

Kullanılabilir istasyonlar harita üzerinde sarı ve kırmızı noktalarla gösterilir.

İstasyonun adını görmek için fareyi noktanın üzerinde gezdirin.

Sonrasında hava gözlem ve tahminlerini görmek için tıklayın.

Haritayı değiştirmek için: yaklaştırmak için siyah artı işaretli yeşil düğmeye ve uzaklaştırmak için de eksi işaretli düğmeye hızla tıklayın; bitişik haritalar için yeşil okları kullanın.


METAR-TAF: